sensor_id;sensor_type;location;lat;lon;timestamp;temperature;humidity
59007;DHT22;44792;52.760;6.726;2022-08-03T00:00:43;19.80;99.90
59007;DHT22;44792;52.760;6.726;2022-08-03T00:03:09;19.70;99.90
59007;DHT22;44792;52.760;6.726;2022-08-03T00:05:35;19.80;99.90
59007;DHT22;44792;52.760;6.726;2022-08-03T00:08:01;19.70;99.90
59007;DHT22;44792;52.760;6.726;2022-08-03T00:10:27;19.70;99.90
59007;DHT22;44792;52.760;6.726;2022-08-03T00:12:53;19.70;99.90
59007;DHT22;44792;52.760;6.726;2022-08-03T00:15:19;19.70;99.90
59007;DHT22;44792;52.760;6.726;2022-08-03T00:17:45;19.60;99.90
59007;DHT22;44792;52.760;6.726;2022-08-03T00:20:12;19.60;99.90
59007;DHT22;44792;52.760;6.726;2022-08-03T00:22:38;19.60;99.90
59007;DHT22;44792;52.760;6.726;2022-08-03T00:25:04;19.60;99.90
59007;DHT22;44792;52.760;6.726;2022-08-03T00:27:29;19.60;99.90
59007;DHT22;44792;52.760;6.726;2022-08-03T00:29:55;19.60;99.90
59007;DHT22;44792;52.760;6.726;2022-08-03T00:32:21;19.60;99.90
59007;DHT22;44792;52.760;6.726;2022-08-03T00:34:46;19.50;99.90
59007;DHT22;44792;52.760;6.726;2022-08-03T00:37:12;19.50;99.90
59007;DHT22;44792;52.760;6.726;2022-08-03T00:39:37;19.50;99.90
59007;DHT22;44792;52.760;6.726;2022-08-03T00:42:04;19.50;99.90
59007;DHT22;44792;52.760;6.726;2022-08-03T00:44:30;19.50;99.90
59007;DHT22;44792;52.760;6.726;2022-08-03T00:46:55;19.50;99.90
59007;DHT22;44792;52.760;6.726;2022-08-03T00:49:21;19.40;99.90
59007;DHT22;44792;52.760;6.726;2022-08-03T00:51:47;19.40;99.90
59007;DHT22;44792;52.760;6.726;2022-08-03T00:54:14;19.30;99.90
59007;DHT22;44792;52.760;6.726;2022-08-03T00:56:40;19.20;99.90
59007;DHT22;44792;52.760;6.726;2022-08-03T00:59:08;19.30;99.90
59007;DHT22;44792;52.760;6.726;2022-08-03T01:01:34;19.30;99.90
59007;DHT22;44792;52.760;6.726;2022-08-03T01:04:00;19.20;99.90
59007;DHT22;44792;52.760;6.726;2022-08-03T01:06:39;19.20;99.90
59007;DHT22;44792;52.760;6.726;2022-08-03T01:09:26;19.20;99.90
59007;DHT22;44792;52.760;6.726;2022-08-03T01:12:02;19.10;99.90
59007;DHT22;44792;52.760;6.726;2022-08-03T01:14:43;19.10;99.90
59007;DHT22;44792;52.760;6.726;2022-08-03T01:19:49;19.10;99.90
59007;DHT22;44792;52.760;6.726;2022-08-03T01:25:06;19.20;99.90
59007;DHT22;44792;52.760;6.726;2022-08-03T01:30:07;19.10;99.90
59007;DHT22;44792;52.760;6.726;2022-08-03T01:32:52;19.10;99.90
59007;DHT22;44792;52.760;6.726;2022-08-03T01:35:42;19.10;99.90
59007;DHT22;44792;52.760;6.726;2022-08-03T01:38:23;19.10;99.90
59007;DHT22;44792;52.760;6.726;2022-08-03T01:40:51;19.10;99.90
59007;DHT22;44792;52.760;6.726;2022-08-03T01:43:22;19.10;99.90
59007;DHT22;44792;52.760;6.726;2022-08-03T01:45:49;19.10;99.90
59007;DHT22;44792;52.760;6.726;2022-08-03T01:48:16;19.10;99.90
59007;DHT22;44792;52.760;6.726;2022-08-03T01:50:44;19.10;99.90
59007;DHT22;44792;52.760;6.726;2022-08-03T01:53:14;19.10;99.90
59007;DHT22;44792;52.760;6.726;2022-08-03T01:55:40;19.10;99.90
59007;DHT22;44792;52.760;6.726;2022-08-03T01:58:07;19.00;99.90
59007;DHT22;44792;52.760;6.726;2022-08-03T02:00:36;19.00;99.90
59007;DHT22;44792;52.760;6.726;2022-08-03T02:03:06;19.00;99.90
59007;DHT22;44792;52.760;6.726;2022-08-03T02:05:33;19.00;99.90
59007;DHT22;44792;52.760;6.726;2022-08-03T02:08:00;19.00;99.90
59007;DHT22;44792;52.760;6.726;2022-08-03T02:10:28;18.90;99.90
59007;DHT22;44792;52.760;6.726;2022-08-03T02:12:57;18.90;99.90
59007;DHT22;44792;52.760;6.726;2022-08-03T02:15:24;19.00;99.90
59007;DHT22;44792;52.760;6.726;2022-08-03T02:17:50;19.00;99.90
59007;DHT22;44792;52.760;6.726;2022-08-03T02:20:17;18.90;99.90
59007;DHT22;44792;52.760;6.726;2022-08-03T02:22:44;19.00;99.90
59007;DHT22;44792;52.760;6.726;2022-08-03T02:25:12;18.90;99.90
59007;DHT22;44792;52.760;6.726;2022-08-03T02:27:44;18.90;99.90
59007;DHT22;44792;52.760;6.726;2022-08-03T02:30:12;18.90;99.90
59007;DHT22;44792;52.760;6.726;2022-08-03T02:32:40;18.80;99.90
59007;DHT22;44792;52.760;6.726;2022-08-03T02:35:10;18.80;99.90
59007;DHT22;44792;52.760;6.726;2022-08-03T02:37:42;18.80;99.90
59007;DHT22;44792;52.760;6.726;2022-08-03T02:40:09;18.80;99.90
59007;DHT22;44792;52.760;6.726;2022-08-03T02:42:37;18.70;99.90
59007;DHT22;44792;52.760;6.726;2022-08-03T02:45:06;18.70;99.90
59007;DHT22;44792;52.760;6.726;2022-08-03T02:47:35;18.70;99.90
59007;DHT22;44792;52.760;6.726;2022-08-03T02:50:03;18.80;99.90
59007;DHT22;44792;52.760;6.726;2022-08-03T02:52:29;18.80;99.90
59007;DHT22;44792;52.760;6.726;2022-08-03T02:54:59;18.80;99.90
59007;DHT22;44792;52.760;6.726;2022-08-03T02:57:29;18.80;99.90
59007;DHT22;44792;52.760;6.726;2022-08-03T02:59:56;18.80;99.90
59007;DHT22;44792;52.760;6.726;2022-08-03T03:02:23;18.80;99.90
59007;DHT22;44792;52.760;6.726;2022-08-03T03:04:50;18.80;99.90
59007;DHT22;44792;52.760;6.726;2022-08-03T03:07:17;18.90;99.90
59007;DHT22;44792;52.760;6.726;2022-08-03T03:09:43;18.90;99.90
59007;DHT22;44792;52.760;6.726;2022-08-03T03:12:11;18.90;99.90
59007;DHT22;44792;52.760;6.726;2022-08-03T03:14:38;19.00;99.90
59007;DHT22;44792;52.760;6.726;2022-08-03T03:17:05;18.90;99.90
59007;DHT22;44792;52.760;6.726;2022-08-03T03:19:32;19.00;99.90
59007;DHT22;44792;52.760;6.726;2022-08-03T03:22:00;19.00;99.90
59007;DHT22;44792;52.760;6.726;2022-08-03T03:24:28;19.00;99.90
59007;DHT22;44792;52.760;6.726;2022-08-03T03:26:55;19.00;99.90
59007;DHT22;44792;52.760;6.726;2022-08-03T03:29:21;19.00;99.90
59007;DHT22;44792;52.760;6.726;2022-08-03T03:31:47;19.00;99.90
59007;DHT22;44792;52.760;6.726;2022-08-03T03:34:13;19.00;99.90
59007;DHT22;44792;52.760;6.726;2022-08-03T03:36:39;19.00;99.90
59007;DHT22;44792;52.760;6.726;2022-08-03T03:39:05;18.90;99.90
59007;DHT22;44792;52.760;6.726;2022-08-03T03:41:30;18.90;99.90
59007;DHT22;44792;52.760;6.726;2022-08-03T03:43:57;19.00;99.90
59007;DHT22;44792;52.760;6.726;2022-08-03T03:46:22;19.00;99.90
59007;DHT22;44792;52.760;6.726;2022-08-03T03:48:48;19.00;99.90
59007;DHT22;44792;52.760;6.726;2022-08-03T03:51:14;19.10;99.90
59007;DHT22;44792;52.760;6.726;2022-08-03T03:53:40;19.00;99.90
59007;DHT22;44792;52.760;6.726;2022-08-03T03:56:06;19.00;99.90
59007;DHT22;44792;52.760;6.726;2022-08-03T03:58:32;19.00;99.90
59007;DHT22;44792;52.760;6.726;2022-08-03T04:00:58;18.90;99.90
59007;DHT22;44792;52.760;6.726;2022-08-03T04:03:23;18.90;99.90
59007;DHT22;44792;52.760;6.726;2022-08-03T04:05:49;18.90;99.90
59007;DHT22;44792;52.760;6.726;2022-08-03T04:08:33;18.90;99.90
59007;DHT22;44792;52.760;6.726;2022-08-03T04:13:54;18.80;99.90
59007;DHT22;44792;52.760;6.726;2022-08-03T04:16:24;18.80;99.90
59007;DHT22;44792;52.760;6.726;2022-08-03T04:18:54;18.80;99.90
59007;DHT22;44792;52.760;6.726;2022-08-03T04:21:21;18.80;99.90
59007;DHT22;44792;52.760;6.726;2022-08-03T04:23:50;18.70;99.90
59007;DHT22;44792;52.760;6.726;2022-08-03T04:26:19;18.80;99.90
59007;DHT22;44792;52.760;6.726;2022-08-03T04:28:46;18.80;99.90
59007;DHT22;44792;52.760;6.726;2022-08-03T04:31:15;18.80;99.90
59007;DHT22;44792;52.760;6.726;2022-08-03T04:33:43;18.80;99.90
59007;DHT22;44792;52.760;6.726;2022-08-03T04:36:11;18.80;99.90
59007;DHT22;44792;52.760;6.726;2022-08-03T04:38:43;18.90;99.90
59007;DHT22;44792;52.760;6.726;2022-08-03T04:41:18;18.80;99.90
59007;DHT22;44792;52.760;6.726;2022-08-03T04:43:44;18.80;99.90
59007;DHT22;44792;52.760;6.726;2022-08-03T04:46:11;18.90;99.90
59007;DHT22;44792;52.760;6.726;2022-08-03T04:48:38;18.90;99.90
59007;DHT22;44792;52.760;6.726;2022-08-03T04:51:04;19.00;99.90
59007;DHT22;44792;52.760;6.726;2022-08-03T04:53:30;19.00;99.90
59007;DHT22;44792;52.760;6.726;2022-08-03T04:56:03;19.10;99.90
59007;DHT22;44792;52.760;6.726;2022-08-03T04:58:29;19.20;99.90
59007;DHT22;44792;52.760;6.726;2022-08-03T05:00:55;19.30;99.90
59007;DHT22;44792;52.760;6.726;2022-08-03T05:03:20;19.30;99.90
59007;DHT22;44792;52.760;6.726;2022-08-03T05:05:46;19.40;99.90
59007;DHT22;44792;52.760;6.726;2022-08-03T05:08:11;19.40;99.90
59007;DHT22;44792;52.760;6.726;2022-08-03T05:10:37;19.40;99.90
59007;DHT22;44792;52.760;6.726;2022-08-03T05:13:03;19.50;99.90
59007;DHT22;44792;52.760;6.726;2022-08-03T05:15:28;19.60;99.90
59007;DHT22;44792;52.760;6.726;2022-08-03T05:17:54;19.80;99.90
59007;DHT22;44792;52.760;6.726;2022-08-03T05:20:20;19.90;99.90
59007;DHT22;44792;52.760;6.726;2022-08-03T05:22:45;20.10;99.90
59007;DHT22;44792;52.760;6.726;2022-08-03T05:25:11;20.20;99.90
59007;DHT22;44792;52.760;6.726;2022-08-03T05:27:36;20.30;99.90
59007;DHT22;44792;52.760;6.726;2022-08-03T05:30:03;20.50;99.90
59007;DHT22;44792;52.760;6.726;2022-08-03T05:32:28;20.60;99.90
59007;DHT22;44792;52.760;6.726;2022-08-03T05:34:54;20.70;99.90
59007;DHT22;44792;52.760;6.726;2022-08-03T05:37:19;20.60;99.90
59007;DHT22;44792;52.760;6.726;2022-08-03T05:39:45;20.70;99.90
59007;DHT22;44792;52.760;6.726;2022-08-03T05:42:12;20.80;99.90
59007;DHT22;44792;52.760;6.726;2022-08-03T05:44:39;20.80;99.90
59007;DHT22;44792;52.760;6.726;2022-08-03T05:47:05;20.90;99.90
59007;DHT22;44792;52.760;6.726;2022-08-03T05:49:30;21.00;99.90
59007;DHT22;44792;52.760;6.726;2022-08-03T05:51:56;21.10;99.90
59007;DHT22;44792;52.760;6.726;2022-08-03T05:54:21;21.10;99.90
59007;DHT22;44792;52.760;6.726;2022-08-03T05:56:47;21.20;99.90
59007;DHT22;44792;52.760;6.726;2022-08-03T05:59:12;21.30;99.90
59007;DHT22;44792;52.760;6.726;2022-08-03T06:01:38;21.30;99.90
59007;DHT22;44792;52.760;6.726;2022-08-03T06:04:04;21.20;99.90
59007;DHT22;44792;52.760;6.726;2022-08-03T06:06:29;21.40;99.90
59007;DHT22;44792;52.760;6.726;2022-08-03T06:08:55;21.50;99.90
59007;DHT22;44792;52.760;6.726;2022-08-03T06:11:20;21.40;99.90
59007;DHT22;44792;52.760;6.726;2022-08-03T06:13:46;21.40;99.90
59007;DHT22;44792;52.760;6.726;2022-08-03T06:16:12;21.60;99.90
59007;DHT22;44792;52.760;6.726;2022-08-03T06:18:38;21.60;99.90
59007;DHT22;44792;52.760;6.726;2022-08-03T06:21:04;21.70;99.90
59007;DHT22;44792;52.760;6.726;2022-08-03T06:23:30;21.70;99.90
59007;DHT22;44792;52.760;6.726;2022-08-03T06:25:55;21.80;99.90
59007;DHT22;44792;52.760;6.726;2022-08-03T06:28:21;21.80;99.90
59007;DHT22;44792;52.760;6.726;2022-08-03T06:30:47;21.80;99.90
59007;DHT22;44792;52.760;6.726;2022-08-03T06:33:13;21.80;99.90
59007;DHT22;44792;52.760;6.726;2022-08-03T06:35:38;21.70;99.90
59007;DHT22;44792;52.760;6.726;2022-08-03T06:38:04;21.70;99.90
59007;DHT22;44792;52.760;6.726;2022-08-03T06:40:30;21.80;99.90
59007;DHT22;44792;52.760;6.726;2022-08-03T06:42:57;22.00;99.90
59007;DHT22;44792;52.760;6.726;2022-08-03T06:45:23;22.00;99.90
59007;DHT22;44792;52.760;6.726;2022-08-03T06:48:17;22.00;99.90
59007;DHT22;44792;52.760;6.726;2022-08-03T06:50:42;22.10;99.90
59007;DHT22;44792;52.760;6.726;2022-08-03T06:53:09;22.10;99.90
59007;DHT22;44792;52.760;6.726;2022-08-03T06:55:34;22.20;99.90
59007;DHT22;44792;52.760;6.726;2022-08-03T06:58:00;22.10;99.90
59007;DHT22;44792;52.760;6.726;2022-08-03T07:00:26;22.10;99.90
59007;DHT22;44792;52.760;6.726;2022-08-03T07:02:52;22.10;99.90
59007;DHT22;44792;52.760;6.726;2022-08-03T07:05:18;22.20;99.90
59007;DHT22;44792;52.760;6.726;2022-08-03T07:07:44;22.20;99.90
59007;DHT22;44792;52.760;6.726;2022-08-03T07:10:10;22.20;99.90
59007;DHT22;44792;52.760;6.726;2022-08-03T07:12:36;22.30;99.90
59007;DHT22;44792;52.760;6.726;2022-08-03T07:15:03;22.30;99.90
59007;DHT22;44792;52.760;6.726;2022-08-03T07:17:30;22.30;99.90
59007;DHT22;44792;52.760;6.726;2022-08-03T07:19:56;22.30;99.90
59007;DHT22;44792;52.760;6.726;2022-08-03T07:22:22;22.40;99.90
59007;DHT22;44792;52.760;6.726;2022-08-03T07:24:48;22.30;99.90
59007;DHT22;44792;52.760;6.726;2022-08-03T07:27:15;22.30;99.90
59007;DHT22;44792;52.760;6.726;2022-08-03T07:29:40;22.30;99.90
59007;DHT22;44792;52.760;6.726;2022-08-03T07:32:06;22.30;99.90
59007;DHT22;44792;52.760;6.726;2022-08-03T07:34:31;22.30;99.90
59007;DHT22;44792;52.760;6.726;2022-08-03T07:36:57;22.40;99.90
59007;DHT22;44792;52.760;6.726;2022-08-03T07:39:23;22.50;99.90
59007;DHT22;44792;52.760;6.726;2022-08-03T07:41:48;22.50;99.90
59007;DHT22;44792;52.760;6.726;2022-08-03T07:44:16;22.60;99.90
59007;DHT22;44792;52.760;6.726;2022-08-03T07:46:42;22.60;99.90
59007;DHT22;44792;52.760;6.726;2022-08-03T07:49:08;22.60;99.90
59007;DHT22;44792;52.760;6.726;2022-08-03T07:51:34;22.80;99.90
59007;DHT22;44792;52.760;6.726;2022-08-03T07:53:59;22.80;99.90
59007;DHT22;44792;52.760;6.726;2022-08-03T07:56:26;22.80;99.90
59007;DHT22;44792;52.760;6.726;2022-08-03T07:58:52;22.90;99.90
59007;DHT22;44792;52.760;6.726;2022-08-03T08:01:18;22.90;99.90
59007;DHT22;44792;52.760;6.726;2022-08-03T08:03:47;23.00;99.90
59007;DHT22;44792;52.760;6.726;2022-08-03T08:06:14;23.10;99.90
59007;DHT22;44792;52.760;6.726;2022-08-03T08:08:40;23.20;99.90
59007;DHT22;44792;52.760;6.726;2022-08-03T08:11:06;23.30;99.90
59007;DHT22;44792;52.760;6.726;2022-08-03T08:13:31;23.40;99.90
59007;DHT22;44792;52.760;6.726;2022-08-03T08:15:57;23.40;99.90
59007;DHT22;44792;52.760;6.726;2022-08-03T08:18:23;23.50;99.90
59007;DHT22;44792;52.760;6.726;2022-08-03T08:20:49;23.50;99.90
59007;DHT22;44792;52.760;6.726;2022-08-03T08:23:15;23.60;99.90
59007;DHT22;44792;52.760;6.726;2022-08-03T08:25:47;23.60;99.90
59007;DHT22;44792;52.760;6.726;2022-08-03T08:28:13;23.80;99.90
59007;DHT22;44792;52.760;6.726;2022-08-03T08:30:38;23.80;99.90
59007;DHT22;44792;52.760;6.726;2022-08-03T08:33:04;23.90;99.90
59007;DHT22;44792;52.760;6.726;2022-08-03T08:35:29;24.00;99.90
59007;DHT22;44792;52.760;6.726;2022-08-03T08:37:55;24.10;99.90
59007;DHT22;44792;52.760;6.726;2022-08-03T08:40:21;24.20;99.90
59007;DHT22;44792;52.760;6.726;2022-08-03T08:42:47;24.20;99.90
59007;DHT22;44792;52.760;6.726;2022-08-03T08:45:12;24.30;99.90
59007;DHT22;44792;52.760;6.726;2022-08-03T08:47:43;24.30;99.90
59007;DHT22;44792;52.760;6.726;2022-08-03T08:50:10;24.40;99.90
59007;DHT22;44792;52.760;6.726;2022-08-03T08:52:39;24.40;99.90
59007;DHT22;44792;52.760;6.726;2022-08-03T08:55:07;24.40;99.90
59007;DHT22;44792;52.760;6.726;2022-08-03T08:57:35;24.50;99.90
59007;DHT22;44792;52.760;6.726;2022-08-03T09:00:09;24.50;99.90
59007;DHT22;44792;52.760;6.726;2022-08-03T09:02:37;24.60;99.90
59007;DHT22;44792;52.760;6.726;2022-08-03T09:05:04;24.60;99.90
59007;DHT22;44792;52.760;6.726;2022-08-03T09:07:29;24.70;99.90
59007;DHT22;44792;52.760;6.726;2022-08-03T09:09:55;24.70;99.90
59007;DHT22;44792;52.760;6.726;2022-08-03T09:12:21;24.70;99.90
59007;DHT22;44792;52.760;6.726;2022-08-03T09:14:46;24.80;99.90
59007;DHT22;44792;52.760;6.726;2022-08-03T09:17:12;24.90;99.90
59007;DHT22;44792;52.760;6.726;2022-08-03T09:19:38;25.00;99.90
59007;DHT22;44792;52.760;6.726;2022-08-03T09:24:33;25.10;99.90
59007;DHT22;44792;52.760;6.726;2022-08-03T09:26:59;25.20;99.90
59007;DHT22;44792;52.760;6.726;2022-08-03T09:29:24;25.20;99.90
59007;DHT22;44792;52.760;6.726;2022-08-03T09:31:59;25.20;99.90
59007;DHT22;44792;52.760;6.726;2022-08-03T09:34:25;25.30;99.90
59007;DHT22;44792;52.760;6.726;2022-08-03T09:36:53;25.30;99.90
59007;DHT22;44792;52.760;6.726;2022-08-03T09:39:24;25.40;99.90
59007;DHT22;44792;52.760;6.726;2022-08-03T09:42:06;25.60;99.90
59007;DHT22;44792;52.760;6.726;2022-08-03T09:44:39;25.70;99.90
59007;DHT22;44792;52.760;6.726;2022-08-03T09:47:09;25.80;99.90
59007;DHT22;44792;52.760;6.726;2022-08-03T09:49:36;25.80;99.90
59007;DHT22;44792;52.760;6.726;2022-08-03T09:52:15;25.90;99.90
59007;DHT22;44792;52.760;6.726;2022-08-03T09:54:43;25.90;99.90
59007;DHT22;44792;52.760;6.726;2022-08-03T09:57:26;26.00;99.90
59007;DHT22;44792;52.760;6.726;2022-08-03T09:59:52;25.90;99.90
59007;DHT22;44792;52.760;6.726;2022-08-03T10:02:23;25.90;99.90
59007;DHT22;44792;52.760;6.726;2022-08-03T10:04:49;26.10;99.90
59007;DHT22;44792;52.760;6.726;2022-08-03T10:07:18;26.00;99.90
59007;DHT22;44792;52.760;6.726;2022-08-03T10:10:00;26.10;99.90
59007;DHT22;44792;52.760;6.726;2022-08-03T10:12:27;26.20;99.90
59007;DHT22;44792;52.760;6.726;2022-08-03T10:14:53;26.30;99.90
59007;DHT22;44792;52.760;6.726;2022-08-03T10:17:20;26.30;99.90
59007;DHT22;44792;52.760;6.726;2022-08-03T10:19:47;26.30;99.90
59007;DHT22;44792;52.760;6.726;2022-08-03T10:22:21;26.40;99.90
59007;DHT22;44792;52.760;6.726;2022-08-03T10:24:52;26.50;99.90
59007;DHT22;44792;52.760;6.726;2022-08-03T10:27:21;26.50;99.90
59007;DHT22;44792;52.760;6.726;2022-08-03T10:29:52;26.50;99.90
59007;DHT22;44792;52.760;6.726;2022-08-03T10:32:30;26.60;99.90
59007;DHT22;44792;52.760;6.726;2022-08-03T10:35:03;26.60;99.90
59007;DHT22;44792;52.760;6.726;2022-08-03T10:37:31;26.60;99.90
59007;DHT22;44792;52.760;6.726;2022-08-03T10:39:59;26.70;99.90
59007;DHT22;44792;52.760;6.726;2022-08-03T10:42:27;26.70;99.90
59007;DHT22;44792;52.760;6.726;2022-08-03T10:45:06;26.70;99.90
59007;DHT22;44792;52.760;6.726;2022-08-03T10:47:34;26.70;99.90
59007;DHT22;44792;52.760;6.726;2022-08-03T10:50:00;26.80;99.90
59007;DHT22;44792;52.760;6.726;2022-08-03T10:52:26;26.80;99.90
59007;DHT22;44792;52.760;6.726;2022-08-03T10:54:51;26.90;99.90
59007;DHT22;44792;52.760;6.726;2022-08-03T10:57:43;27.00;99.90
59007;DHT22;44792;52.760;6.726;2022-08-03T11:00:09;27.00;99.90
59007;DHT22;44792;52.760;6.726;2022-08-03T11:03:11;27.10;99.90
59007;DHT22;44792;52.760;6.726;2022-08-03T11:05:44;27.10;99.90
59007;DHT22;44792;52.760;6.726;2022-08-03T11:08:31;27.10;99.90
59007;DHT22;44792;52.760;6.726;2022-08-03T11:11:01;27.30;99.90
59007;DHT22;44792;52.760;6.726;2022-08-03T11:13:28;27.40;99.90
59007;DHT22;44792;52.760;6.726;2022-08-03T11:15:57;27.50;99.90
59007;DHT22;44792;52.760;6.726;2022-08-03T11:18:23;27.50;99.90
59007;DHT22;44792;52.760;6.726;2022-08-03T11:20:52;27.70;99.90
59007;DHT22;44792;52.760;6.726;2022-08-03T11:23:45;27.70;99.90
59007;DHT22;44792;52.760;6.726;2022-08-03T11:26:18;27.70;99.90
59007;DHT22;44792;52.760;6.726;2022-08-03T11:28:47;27.80;99.90
59007;DHT22;44792;52.760;6.726;2022-08-03T11:54:20;28.30;99.90
59007;DHT22;44792;52.760;6.726;2022-08-03T11:56:49;28.30;99.90
59007;DHT22;44792;52.760;6.726;2022-08-03T11:59:15;28.30;99.90
59007;DHT22;44792;52.760;6.726;2022-08-03T12:01:42;28.30;99.90
59007;DHT22;44792;52.760;6.726;2022-08-03T12:04:08;28.30;99.90
59007;DHT22;44792;52.760;6.726;2022-08-03T12:06:35;28.40;99.90
59007;DHT22;44792;52.760;6.726;2022-08-03T12:09:29;28.40;99.90
59007;DHT22;44792;52.760;6.726;2022-08-03T12:11:55;28.30;99.90
59007;DHT22;44792;52.760;6.726;2022-08-03T12:14:21;28.30;99.90
59007;DHT22;44792;52.760;6.726;2022-08-03T12:16:47;28.20;99.90
59007;DHT22;44792;52.760;6.726;2022-08-03T12:19:13;28.30;99.90
59007;DHT22;44792;52.760;6.726;2022-08-03T12:21:48;28.30;99.90
59007;DHT22;44792;52.760;6.726;2022-08-03T12:24:15;28.40;99.90
59007;DHT22;44792;52.760;6.726;2022-08-03T12:26:48;28.50;99.90
59007;DHT22;44792;52.760;6.726;2022-08-03T12:29:21;28.50;99.90
59007;DHT22;44792;52.760;6.726;2022-08-03T12:31:47;28.50;99.90
59007;DHT22;44792;52.760;6.726;2022-08-03T12:34:14;28.50;99.90
59007;DHT22;44792;52.760;6.726;2022-08-03T12:36:53;28.50;99.90
59007;DHT22;44792;52.760;6.726;2022-08-03T12:39:24;28.60;99.90
59007;DHT22;44792;52.760;6.726;2022-08-03T12:41:54;28.50;99.90
59007;DHT22;44792;52.760;6.726;2022-08-03T12:46:59;28.70;99.90
59007;DHT22;44792;52.760;6.726;2022-08-03T12:49:25;28.60;99.40
59007;DHT22;44792;52.760;6.726;2022-08-03T12:54:20;28.80;99.90
59007;DHT22;44792;52.760;6.726;2022-08-03T12:57:07;28.80;99.90
59007;DHT22;44792;52.760;6.726;2022-08-03T12:59:36;28.90;99.70
59007;DHT22;44792;52.760;6.726;2022-08-03T13:02:03;28.90;99.90
59007;DHT22;44792;52.760;6.726;2022-08-03T13:04:31;28.90;98.70
59007;DHT22;44792;52.760;6.726;2022-08-03T13:06:58;28.90;99.30
59007;DHT22;44792;52.760;6.726;2022-08-03T13:09:24;29.00;99.10
59007;DHT22;44792;52.760;6.726;2022-08-03T13:12:11;29.00;99.00
59007;DHT22;44792;52.760;6.726;2022-08-03T13:14:37;29.10;99.00
59007;DHT22;44792;52.760;6.726;2022-08-03T13:17:03;29.10;98.90
59007;DHT22;44792;52.760;6.726;2022-08-03T13:19:31;29.10;98.70
59007;DHT22;44792;52.760;6.726;2022-08-03T13:21:57;29.10;97.90
59007;DHT22;44792;52.760;6.726;2022-08-03T13:24:22;29.20;98.70
59007;DHT22;44792;52.760;6.726;2022-08-03T13:26:48;29.10;98.50
59007;DHT22;44792;52.760;6.726;2022-08-03T13:29:15;29.10;98.50
59007;DHT22;44792;52.760;6.726;2022-08-03T13:31:41;29.10;98.30
59007;DHT22;44792;52.760;6.726;2022-08-03T13:34:07;29.10;98.10
59007;DHT22;44792;52.760;6.726;2022-08-03T13:36:33;29.20;97.80
59007;DHT22;44792;52.760;6.726;2022-08-03T13:38:58;29.30;97.50
59007;DHT22;44792;52.760;6.726;2022-08-03T13:41:24;29.30;97.70
59007;DHT22;44792;52.760;6.726;2022-08-03T13:43:49;29.30;97.90
59007;DHT22;44792;52.760;6.726;2022-08-03T13:46:15;29.40;98.00
59007;DHT22;44792;52.760;6.726;2022-08-03T13:48:40;29.30;98.50
59007;DHT22;44792;52.760;6.726;2022-08-03T13:51:06;29.40;98.30
59007;DHT22;44792;52.760;6.726;2022-08-03T13:53:31;29.40;98.50
59007;DHT22;44792;52.760;6.726;2022-08-03T13:55:57;29.50;99.20
59007;DHT22;44792;52.760;6.726;2022-08-03T13:58:23;29.50;98.60
59007;DHT22;44792;52.760;6.726;2022-08-03T14:00:48;29.50;98.60
59007;DHT22;44792;52.760;6.726;2022-08-03T14:03:14;29.60;98.70
59007;DHT22;44792;52.760;6.726;2022-08-03T14:05:41;29.60;98.40
59007;DHT22;44792;52.760;6.726;2022-08-03T14:08:06;29.60;98.40
59007;DHT22;44792;52.760;6.726;2022-08-03T14:10:37;29.60;98.40
59007;DHT22;44792;52.760;6.726;2022-08-03T14:13:04;29.70;98.70
59007;DHT22;44792;52.760;6.726;2022-08-03T14:15:30;29.70;99.10
59007;DHT22;44792;52.760;6.726;2022-08-03T14:17:55;29.80;98.90
59007;DHT22;44792;52.760;6.726;2022-08-03T14:20:21;29.80;99.30
59007;DHT22;44792;52.760;6.726;2022-08-03T14:22:47;29.80;99.10
59007;DHT22;44792;52.760;6.726;2022-08-03T14:25:12;29.80;98.90
59007;DHT22;44792;52.760;6.726;2022-08-03T14:27:38;29.90;99.00
59007;DHT22;44792;52.760;6.726;2022-08-03T14:30:04;29.90;99.10
59007;DHT22;44792;52.760;6.726;2022-08-03T14:32:29;29.90;98.90
59007;DHT22;44792;52.760;6.726;2022-08-03T14:34:55;29.90;98.80
59007;DHT22;44792;52.760;6.726;2022-08-03T14:37:20;30.00;99.00
59007;DHT22;44792;52.760;6.726;2022-08-03T14:39:46;30.00;98.90
59007;DHT22;44792;52.760;6.726;2022-08-03T14:42:12;30.10;98.80
59007;DHT22;44792;52.760;6.726;2022-08-03T14:44:40;30.10;98.70
59007;DHT22;44792;52.760;6.726;2022-08-03T14:47:05;30.10;98.70
59007;DHT22;44792;52.760;6.726;2022-08-03T14:49:31;30.00;98.60
59007;DHT22;44792;52.760;6.726;2022-08-03T14:51:56;30.00;98.60
59007;DHT22;44792;52.760;6.726;2022-08-03T14:54:22;30.00;98.60
59007;DHT22;44792;52.760;6.726;2022-08-03T14:56:47;30.00;98.60
59007;DHT22;44792;52.760;6.726;2022-08-03T14:59:13;30.00;98.50
59007;DHT22;44792;52.760;6.726;2022-08-03T15:01:38;30.10;98.90
59007;DHT22;44792;52.760;6.726;2022-08-03T15:04:04;30.00;98.30
59007;DHT22;44792;52.760;6.726;2022-08-03T15:06:29;30.10;98.80
59007;DHT22;44792;52.760;6.726;2022-08-03T15:08:55;30.10;98.70
59007;DHT22;44792;52.760;6.726;2022-08-03T15:11:20;30.00;98.30
59007;DHT22;44792;52.760;6.726;2022-08-03T15:13:46;30.10;98.50
59007;DHT22;44792;52.760;6.726;2022-08-03T15:16:12;30.10;98.60
59007;DHT22;44792;52.760;6.726;2022-08-03T15:18:37;30.10;98.20
59007;DHT22;44792;52.760;6.726;2022-08-03T15:21:03;30.10;97.50
59007;DHT22;44792;52.760;6.726;2022-08-03T15:23:28;30.10;97.50
59007;DHT22;44792;52.760;6.726;2022-08-03T15:25:54;30.00;96.80
59007;DHT22;44792;52.760;6.726;2022-08-03T15:28:19;30.00;96.50
59007;DHT22;44792;52.760;6.726;2022-08-03T15:30:45;29.90;95.60
59007;DHT22;44792;52.760;6.726;2022-08-03T15:33:10;29.80;95.50
59007;DHT22;44792;52.760;6.726;2022-08-03T15:35:36;29.80;95.40
59007;DHT22;44792;52.760;6.726;2022-08-03T15:38:02;29.90;95.40
59007;DHT22;44792;52.760;6.726;2022-08-03T15:40:27;29.80;95.40
59007;DHT22;44792;52.760;6.726;2022-08-03T15:42:53;29.70;95.40
59007;DHT22;44792;52.760;6.726;2022-08-03T15:45:18;29.80;95.50
59007;DHT22;44792;52.760;6.726;2022-08-03T15:47:44;29.70;95.40
59007;DHT22;44792;52.760;6.726;2022-08-03T15:50:09;29.70;95.50
59007;DHT22;44792;52.760;6.726;2022-08-03T15:52:36;29.70;95.40
59007;DHT22;44792;52.760;6.726;2022-08-03T15:55:02;29.60;95.40
59007;DHT22;44792;52.760;6.726;2022-08-03T15:57:28;29.60;95.60
59007;DHT22;44792;52.760;6.726;2022-08-03T15:59:54;29.60;95.60
59007;DHT22;44792;52.760;6.726;2022-08-03T16:02:20;29.60;95.70
59007;DHT22;44792;52.760;6.726;2022-08-03T16:04:45;29.60;95.90
59007;DHT22;44792;52.760;6.726;2022-08-03T16:07:11;29.60;96.50
59007;DHT22;44792;52.760;6.726;2022-08-03T16:09:38;29.60;96.40
59007;DHT22;44792;52.760;6.726;2022-08-03T16:12:04;29.60;96.50
59007;DHT22;44792;52.760;6.726;2022-08-03T16:14:30;29.60;96.40